createdAt,value
2023-02-20T00:00:56.343Z,5.03
2023-02-20T00:01:56.331Z,5.05
2023-02-20T00:02:56.316Z,5.03
2023-02-20T00:03:56.421Z,5.00
2023-02-20T00:04:56.288Z,5.03
2023-02-20T00:05:56.281Z,5.05
2023-02-20T00:06:56.364Z,5.05
2023-02-20T00:07:56.257Z,5.03
2023-02-20T00:08:56.238Z,5.03
2023-02-20T00:09:56.249Z,5.05
2023-02-20T00:10:56.227Z,5.03
2023-02-20T00:11:56.242Z,5.05
2023-02-20T00:12:56.203Z,5.03
2023-02-20T00:13:56.201Z,5.02
2023-02-20T00:14:56.171Z,5.02
2023-02-20T00:15:56.239Z,5.00
2023-02-20T00:16:56.154Z,5.00
2023-02-20T00:17:56.148Z,5.00
2023-02-20T00:18:56.130Z,4.99
2023-02-20T00:19:56.113Z,4.97
2023-02-20T00:20:56.108Z,4.97
2023-02-20T00:21:56.109Z,4.99
2023-02-20T00:22:56.085Z,4.96
2023-02-20T00:23:56.079Z,4.96
2023-02-20T00:24:56.056Z,4.96
2023-02-20T00:25:56.060Z,4.95
2023-02-20T00:26:56.048Z,4.93
2023-02-20T00:27:56.028Z,4.93
2023-02-20T00:28:56.027Z,4.90
2023-02-20T00:29:56.007Z,4.90
2023-02-20T00:30:56.017Z,4.87
2023-02-20T00:31:56.121Z,4.84
2023-02-20T00:32:55.973Z,4.85
2023-02-20T00:33:55.956Z,4.84
2023-02-20T00:34:55.950Z,4.84
2023-02-20T00:35:55.946Z,4.84
2023-02-20T00:36:55.936Z,4.82
2023-02-20T00:37:55.915Z,4.85
2023-02-20T00:38:55.912Z,4.85
2023-02-20T00:39:55.906Z,4.87
2023-02-20T00:40:55.880Z,4.88
2023-02-20T00:41:55.900Z,4.88
2023-02-20T00:42:55.861Z,4.87
2023-02-20T00:43:55.858Z,4.87
2023-02-20T00:44:55.865Z,4.82
2023-02-20T00:45:55.850Z,4.78
2023-02-20T00:46:55.833Z,4.78
2023-02-20T00:47:55.803Z,4.75
2023-02-20T00:48:55.796Z,4.77
2023-02-20T00:49:55.780Z,4.78
2023-02-20T00:50:55.767Z,4.77
2023-02-20T00:51:55.769Z,4.78
2023-02-20T00:52:55.747Z,4.77
2023-02-20T00:53:55.742Z,4.75
2023-02-20T00:54:55.719Z,4.72
2023-02-20T00:55:55.720Z,4.71
2023-02-20T00:56:55.707Z,4.72
2023-02-20T00:57:55.684Z,4.74
2023-02-20T00:58:55.682Z,4.74
2023-02-20T00:59:55.672Z,4.72
2023-02-20T01:00:55.656Z,4.69
2023-02-20T01:01:55.751Z,4.66
2023-02-20T01:02:55.662Z,4.64
2023-02-20T01:03:55.617Z,4.64
2023-02-20T01:04:55.620Z,4.66
2023-02-20T01:05:55.801Z,4.67
2023-02-20T01:06:55.637Z,4.67
2023-02-20T01:07:55.589Z,4.69
2023-02-20T01:08:55.563Z,4.67
2023-02-20T01:09:55.586Z,4.67
2023-02-20T01:10:55.539Z,4.69
2023-02-20T01:11:55.524Z,4.69
2023-02-20T01:12:55.516Z,4.69
2023-02-20T01:13:55.512Z,4.69
2023-02-20T01:14:55.494Z,4.71
2023-02-20T01:15:55.531Z,4.71
2023-02-20T01:16:55.484Z,4.71
2023-02-20T01:17:55.475Z,4.71
2023-02-20T01:18:55.450Z,4.72
2023-02-20T01:19:55.435Z,4.71
2023-02-20T01:20:55.434Z,4.69
2023-02-20T01:21:55.417Z,4.64
2023-02-20T01:22:55.397Z,4.63
2023-02-20T01:23:55.385Z,4.61
2023-02-20T01:24:55.378Z,4.63
2023-02-20T01:25:55.372Z,4.61
2023-02-20T01:26:55.357Z,4.60
2023-02-20T01:27:55.342Z,4.60
2023-02-20T01:28:55.342Z,4.61
2023-02-20T01:29:55.323Z,4.61
2023-02-20T01:30:55.350Z,4.61
2023-02-20T01:31:55.442Z,4.61
2023-02-20T01:32:55.294Z,4.60
2023-02-20T01:33:55.281Z,4.57
2023-02-20T01:34:55.266Z,4.54
2023-02-20T01:35:55.266Z,4.54
2023-02-20T01:36:55.246Z,4.56
2023-02-20T01:37:55.227Z,4.57
2023-02-20T01:38:55.223Z,4.54
2023-02-20T01:39:55.214Z,4.59
2023-02-20T01:40:55.204Z,4.61
2023-02-20T01:41:55.193Z,4.59
2023-02-20T01:42:55.180Z,4.54
2023-02-20T01:43:55.161Z,4.54
2023-02-20T01:44:55.151Z,4.51
2023-02-20T01:45:55.152Z,4.48
2023-02-20T01:46:55.194Z,4.48
2023-02-20T01:47:55.120Z,4.49
2023-02-20T01:48:55.118Z,4.45
2023-02-20T01:49:55.112Z,4.42
2023-02-20T01:50:55.093Z,4.39
2023-02-20T01:51:55.074Z,4.38
2023-02-20T01:52:55.069Z,4.36
2023-02-20T01:53:55.058Z,4.38
2023-02-20T01:54:55.042Z,4.38
2023-02-20T01:55:55.029Z,4.41
2023-02-20T01:56:55.040Z,4.43
2023-02-20T01:57:55.007Z,4.43
2023-02-20T01:58:55.006Z,4.46
2023-02-20T01:59:54.983Z,4.48
2023-02-20T02:00:55.046Z,4.51
2023-02-20T02:01:55.024Z,4.53
2023-02-20T02:02:54.955Z,4.53
2023-02-20T02:03:54.950Z,4.57
2023-02-20T02:04:54.940Z,4.59
2023-02-20T02:05:54.948Z,4.60
2023-02-20T02:06:54.912Z,4.60
2023-02-20T02:07:54.899Z,4.60
2023-02-20T02:08:54.896Z,4.59
2023-02-20T02:09:54.877Z,4.59
2023-02-20T02:10:54.860Z,4.60
2023-02-20T02:11:54.851Z,4.57
2023-02-20T02:12:54.837Z,4.57
2023-02-20T02:13:54.830Z,4.57
2023-02-20T02:14:54.850Z,4.57
2023-02-20T02:15:54.825Z,4.59
2023-02-20T02:16:54.794Z,4.61
2023-02-20T02:17:54.803Z,4.64
2023-02-20T02:18:54.779Z,4.64
2023-02-20T02:19:54.755Z,4.66
2023-02-20T02:20:54.750Z,4.67
2023-02-20T02:21:54.739Z,4.71
2023-02-20T02:22:54.717Z,4.72
2023-02-20T02:23:54.716Z,4.74
2023-02-20T02:24:54.702Z,4.79
2023-02-20T02:25:54.683Z,4.81
2023-02-20T02:26:54.682Z,4.84
2023-02-20T02:27:54.683Z,4.87
2023-02-20T02:28:54.655Z,4.90
2023-02-20T02:29:54.644Z,4.93
2023-02-20T02:30:54.668Z,4.99
2023-02-20T02:31:54.677Z,5.05
2023-02-20T02:32:54.611Z,5.10
2023-02-20T02:33:54.599Z,5.11
2023-02-20T02:34:54.587Z,5.13
2023-02-20T02:35:54.571Z,5.13
2023-02-20T02:36:54.575Z,5.14
2023-02-20T02:37:54.553Z,5.15
2023-02-20T02:38:54.563Z,5.18
2023-02-20T02:39:54.537Z,5.18
2023-02-20T02:40:54.522Z,5.20
2023-02-20T02:41:54.508Z,5.21
2023-02-20T02:42:54.501Z,5.23
2023-02-20T02:43:54.479Z,5.23
2023-02-20T02:44:54.472Z,5.24
2023-02-20T02:45:54.540Z,5.26
2023-02-20T02:46:54.445Z,5.28
2023-02-20T02:47:54.457Z,5.29
2023-02-20T02:48:54.437Z,5.31
2023-02-20T02:49:54.412Z,5.33
2023-02-20T02:50:54.401Z,5.33
2023-02-20T02:51:54.388Z,5.36
2023-02-20T02:52:54.384Z,5.38
2023-02-20T02:53:54.379Z,5.38
2023-02-20T02:54:54.383Z,5.40
2023-02-20T02:55:54.354Z,5.39
2023-02-20T02:56:54.340Z,5.40
2023-02-20T02:57:54.331Z,5.40
2023-02-20T02:58:54.320Z,5.43
2023-02-20T02:59:54.299Z,5.42
2023-02-20T03:00:54.396Z,5.43
2023-02-20T03:01:54.284Z,5.43
2023-02-20T03:02:54.380Z,5.47
2023-02-20T03:03:54.273Z,5.43
2023-02-20T03:04:54.245Z,5.46
2023-02-20T03:05:54.240Z,5.46
2023-02-20T03:06:54.232Z,5.46
2023-02-20T03:07:54.215Z,5.47
2023-02-20T03:08:54.199Z,5.47
2023-02-20T03:09:54.195Z,5.47
2023-02-20T03:10:54.205Z,5.49
2023-02-20T03:11:54.176Z,5.50
2023-02-20T03:12:54.156Z,5.52
2023-02-20T03:13:54.141Z,5.54
2023-02-20T03:14:54.144Z,5.54
2023-02-20T03:15:56.128Z,5.57
2023-02-20T03:16:54.214Z,5.58
2023-02-20T03:17:54.108Z,5.61
2023-02-20T03:18:54.086Z,5.61
2023-02-20T03:19:54.097Z,5.62
2023-02-20T03:20:54.074Z,5.65
2023-02-20T03:21:54.056Z,5.67
2023-02-20T03:22:54.051Z,5.70
2023-02-20T03:23:54.043Z,5.70
2023-02-20T03:24:54.024Z,5.72
2023-02-20T03:25:54.011Z,5.73
2023-02-20T03:26:54.033Z,5.75
2023-02-20T03:27:54.000Z,5.75
2023-02-20T03:28:53.992Z,5.73
2023-02-20T03:29:53.968Z,5.75
2023-02-20T03:30:53.968Z,5.76
2023-02-20T03:31:54.017Z,5.75
2023-02-20T03:32:53.931Z,5.77
2023-02-20T03:33:53.927Z,5.76
2023-02-20T03:34:53.910Z,5.77
2023-02-20T03:35:53.905Z,5.79
2023-02-20T03:36:53.896Z,5.79
2023-02-20T03:37:53.890Z,5.80
2023-02-20T03:38:53.865Z,5.79
2023-02-20T03:39:53.860Z,5.82
2023-02-20T03:40:53.851Z,5.85
2023-02-20T03:41:53.833Z,5.84
2023-02-20T03:42:53.843Z,5.85
2023-02-20T03:43:53.834Z,5.88
2023-02-20T03:44:53.803Z,5.88
2023-02-20T03:45:53.808Z,5.90
2023-02-20T03:46:53.790Z,5.90
2023-02-20T03:47:53.781Z,5.91
2023-02-20T03:48:53.754Z,5.93
2023-02-20T03:49:53.760Z,5.93
2023-02-20T03:50:53.737Z,5.94
2023-02-20T03:51:53.720Z,5.97
2023-02-20T03:52:53.716Z,5.98
2023-02-20T03:53:53.706Z,6.00
2023-02-20T03:54:53.691Z,6.02
2023-02-20T03:55:53.673Z,6.02
2023-02-20T03:56:53.665Z,6.02
2023-02-20T03:57:53.665Z,6.02
2023-02-20T03:58:53.663Z,6.05
2023-02-20T03:59:53.645Z,6.08
2023-02-20T04:00:53.622Z,6.08
2023-02-20T04:01:53.607Z,6.09
2023-02-20T04:02:53.600Z,6.09
2023-02-20T04:03:53.598Z,6.08
2023-02-20T04:04:53.589Z,6.09
2023-02-20T04:05:53.618Z,6.09
2023-02-20T04:06:53.557Z,6.11
2023-02-20T04:07:53.546Z,6.11
2023-02-20T04:08:53.531Z,6.11
2023-02-20T04:09:53.514Z,6.13
2023-02-20T04:10:53.510Z,6.13
2023-02-20T04:11:53.499Z,6.15
2023-02-20T04:12:53.505Z,6.15
2023-02-20T04:13:53.486Z,6.16
2023-02-20T04:14:53.486Z,6.18
2023-02-20T04:15:53.464Z,6.18
2023-02-20T04:16:53.455Z,6.16
2023-02-20T04:17:53.433Z,6.19
2023-02-20T04:18:53.431Z,6.21
2023-02-20T04:19:53.412Z,6.24
2023-02-20T04:20:53.452Z,6.24
2023-02-20T04:21:53.377Z,6.21
2023-02-20T04:22:53.376Z,6.23
2023-02-20T04:23:53.363Z,6.23
2023-02-20T04:24:53.351Z,6.23
2023-02-20T04:25:53.351Z,6.24
2023-02-20T04:26:53.326Z,6.23
2023-02-20T04:27:53.311Z,6.23
2023-02-20T04:28:53.303Z,6.23
2023-02-20T04:29:53.290Z,6.24
2023-02-20T04:30:53.321Z,6.24
2023-02-20T04:31:53.325Z,6.24
2023-02-20T04:32:53.254Z,6.26
2023-02-20T04:33:53.235Z,6.29
2023-02-20T04:34:53.231Z,6.29
2023-02-20T04:35:53.212Z,6.31
2023-02-20T04:36:53.207Z,6.33
2023-02-20T04:37:53.195Z,6.30
2023-02-20T04:38:53.180Z,6.33
2023-02-20T04:39:53.167Z,6.31
2023-02-20T04:40:53.165Z,6.33
2023-02-20T04:41:53.143Z,6.33
2023-02-20T04:42:53.136Z,6.30
2023-02-20T04:43:53.126Z,6.31
2023-02-20T04:44:53.115Z,6.31
2023-02-20T04:45:53.125Z,6.30
2023-02-20T04:46:53.123Z,6.34
2023-02-20T04:47:53.110Z,6.34
2023-02-20T04:48:53.070Z,6.34
2023-02-20T04:49:53.063Z,6.34
2023-02-20T04:50:53.038Z,6.34
2023-02-20T04:51:53.041Z,6.33
2023-02-20T04:52:53.019Z,6.33
2023-02-20T04:53:53.016Z,6.34
2023-02-20T04:54:52.993Z,6.34
2023-02-20T04:55:52.987Z,6.36
2023-02-20T04:56:52.978Z,6.37
2023-02-20T04:57:52.973Z,6.39
2023-02-20T04:58:52.955Z,6.39
2023-02-20T04:59:52.934Z,6.42
2023-02-20T05:00:52.926Z,6.44
2023-02-20T05:01:52.923Z,6.45
2023-02-20T05:02:52.929Z,6.45
2023-02-20T05:03:52.888Z,6.45
2023-02-20T05:04:52.973Z,6.44
2023-02-20T05:05:52.879Z,6.44
2023-02-20T05:06:52.862Z,6.44
2023-02-20T05:07:52.849Z,6.45
2023-02-20T05:08:52.832Z,6.46
2023-02-20T05:09:52.822Z,6.48
2023-02-20T05:10:52.821Z,6.51
2023-02-20T05:11:52.807Z,6.52
2023-02-20T05:12:52.790Z,6.51
2023-02-20T05:13:52.783Z,6.49
2023-02-20T05:14:53.747Z,6.49
2023-02-20T05:15:52.826Z,6.51
2023-02-20T05:16:52.757Z,6.51
2023-02-20T05:17:52.736Z,6.52
2023-02-20T05:18:52.745Z,6.52
2023-02-20T05:19:52.710Z,6.55
2023-02-20T05:20:52.699Z,6.55
2023-02-20T05:21:52.689Z,6.56
2023-02-20T05:22:52.680Z,6.59
2023-02-20T05:23:52.675Z,6.60
2023-02-20T05:24:52.659Z,6.62
2023-02-20T05:25:52.646Z,6.62
2023-02-20T05:26:52.642Z,6.63
2023-02-20T05:27:52.617Z,6.63
2023-02-20T05:28:52.611Z,6.64
2023-02-20T05:29:52.601Z,6.66
2023-02-20T05:30:52.601Z,6.66
2023-02-20T05:31:52.739Z,6.66
2023-02-20T05:32:52.572Z,6.66
2023-02-20T05:33:52.550Z,6.66
2023-02-20T05:34:52.568Z,6.66
2023-02-20T05:35:52.526Z,6.67
2023-02-20T05:36:52.523Z,6.69
2023-02-20T05:37:52.503Z,6.69
2023-02-20T05:38:52.509Z,6.70
2023-02-20T05:39:52.481Z,6.70
2023-02-20T05:40:52.471Z,6.70
2023-02-20T05:41:52.468Z,6.70
2023-02-20T05:42:52.451Z,6.72
2023-02-20T05:43:52.440Z,6.72
2023-02-20T05:44:52.429Z,6.72
2023-02-20T05:45:52.421Z,6.73
2023-02-20T05:46:52.406Z,6.77
2023-02-20T05:47:52.396Z,6.77
2023-02-20T05:48:52.385Z,6.78
2023-02-20T05:49:52.364Z,6.80
2023-02-20T05:50:52.391Z,6.78
2023-02-20T05:51:52.341Z,6.80
2023-02-20T05:52:52.329Z,6.81
2023-02-20T05:53:52.346Z,6.82
2023-02-20T05:54:52.306Z,6.82
2023-02-20T05:55:52.301Z,6.81
2023-02-20T05:56:52.298Z,6.80
2023-02-20T05:57:52.281Z,6.81
2023-02-20T05:58:52.272Z,6.82
2023-02-20T05:59:52.257Z,6.84
2023-02-20T06:00:52.253Z,6.82
2023-02-20T06:01:52.237Z,6.82
2023-02-20T06:02:52.214Z,6.81
2023-02-20T06:03:52.237Z,6.84
2023-02-20T06:04:52.225Z,6.84
2023-02-20T06:05:52.193Z,6.85
2023-02-20T06:06:54.197Z,6.87
2023-02-20T06:07:52.163Z,6.88
2023-02-20T06:08:52.162Z,6.85
2023-02-20T06:09:52.141Z,6.85
2023-02-20T06:10:52.136Z,6.87
2023-02-20T06:11:52.116Z,6.87
2023-02-20T06:12:52.109Z,6.90
2023-02-20T06:13:52.089Z,6.87
2023-02-20T06:14:52.083Z,6.88
2023-02-20T06:15:52.095Z,6.87
2023-02-20T06:16:52.069Z,6.90
2023-02-20T06:17:52.050Z,6.90
2023-02-20T06:18:52.048Z,6.91
2023-02-20T06:19:52.029Z,6.91
2023-02-20T06:20:52.014Z,6.91
2023-02-20T06:21:51.997Z,6.96
2023-02-20T06:22:52.021Z,6.96
2023-02-20T06:23:51.980Z,6.96
2023-02-20T06:24:51.973Z,6.97
2023-02-20T06:25:51.958Z,6.97
2023-02-20T06:26:51.953Z,6.97
2023-02-20T06:27:51.951Z,6.97
2023-02-20T06:28:51.926Z,6.97
2023-02-20T06:29:51.922Z,6.97
2023-02-20T06:30:51.897Z,6.99
2023-02-20T06:31:52.018Z,7.00
2023-02-20T06:32:51.890Z,7.01
2023-02-20T06:33:51.872Z,7.00
2023-02-20T06:34:51.861Z,7.03
2023-02-20T06:35:51.844Z,7.04
2023-02-20T06:36:51.838Z,7.04
2023-02-20T06:37:51.839Z,7.04
2023-02-20T06:38:51.834Z,7.06
2023-02-20T06:39:51.804Z,7.06
2023-02-20T06:40:51.810Z,7.07
2023-02-20T06:41:51.783Z,7.08
2023-02-20T06:42:51.768Z,7.07
2023-02-20T06:43:51.766Z,7.08
2023-02-20T06:44:51.753Z,7.08
2023-02-20T06:45:51.732Z,7.11
2023-02-20T06:46:51.768Z,7.11
2023-02-20T06:47:51.712Z,7.13
2023-02-20T06:48:51.709Z,7.16
2023-02-20T06:49:51.691Z,7.18
2023-02-20T06:50:51.679Z,7.18
2023-02-20T06:51:51.673Z,7.19
2023-02-20T06:52:51.652Z,7.21
2023-02-20T06:53:51.659Z,7.24
2023-02-20T06:54:51.666Z,7.22
2023-02-20T06:55:51.634Z,7.22
2023-02-20T06:56:51.613Z,7.26
2023-02-20T06:57:51.606Z,7.28
2023-02-20T06:58:51.586Z,7.29
2023-02-20T06:59:51.584Z,7.31
2023-02-20T07:00:51.599Z,7.33
2023-02-20T07:01:51.609Z,7.36
2023-02-20T07:02:51.549Z,7.36
2023-02-20T07:03:51.530Z,7.37
2023-02-20T07:04:51.517Z,7.40
2023-02-20T07:05:51.513Z,7.42
2023-02-20T07:06:51.500Z,7.43
2023-02-20T07:07:51.488Z,7.46
2023-02-20T07:08:51.478Z,7.46
2023-02-20T07:09:51.477Z,7.49
2023-02-20T07:10:51.484Z,7.47
2023-02-20T07:11:51.452Z,7.49
2023-02-20T07:12:51.434Z,7.52
2023-02-20T07:13:51.450Z,7.54
2023-02-20T07:14:51.402Z,7.54
2023-02-20T07:15:51.445Z,7.57
2023-02-20T07:16:51.382Z,7.55
2023-02-20T07:17:51.379Z,7.57
2023-02-20T07:18:51.369Z,7.58
2023-02-20T07:19:51.359Z,7.61
2023-02-20T07:20:53.052Z,7.64
2023-02-20T07:21:51.325Z,7.68
2023-02-20T07:22:51.327Z,7.72
2023-02-20T07:23:51.310Z,7.75
2023-02-20T07:24:51.289Z,7.75
2023-02-20T07:25:51.282Z,7.79
2023-02-20T07:26:51.293Z,7.79
2023-02-20T07:27:51.269Z,7.80
2023-02-20T07:28:52.914Z,7.82
2023-02-20T07:29:51.236Z,7.83
2023-02-20T07:30:51.246Z,7.85
2023-02-20T07:31:51.297Z,7.86
2023-02-20T07:32:51.210Z,7.87
2023-02-20T07:33:51.200Z,7.90
2023-02-20T07:35:03.122Z,7.91
2023-02-20T07:35:51.175Z,7.94
2023-02-20T07:36:51.157Z,7.94
2023-02-20T07:37:51.152Z,7.95
2023-02-20T07:38:51.142Z,7.97
2023-02-20T07:39:51.173Z,7.95
2023-02-20T07:40:51.123Z,7.97
2023-02-20T07:41:51.111Z,8.00
2023-02-20T07:42:51.126Z,8.03
2023-02-20T07:43:51.085Z,7.93
2023-02-20T07:44:51.073Z,7.83
2023-02-20T07:45:51.143Z,7.82
2023-02-20T07:46:51.055Z,7.80
2023-02-20T07:47:51.041Z,7.82
2023-02-20T07:48:51.032Z,7.87
2023-02-20T07:49:51.013Z,7.90
2023-02-20T07:50:51.152Z,7.93
2023-02-20T07:51:50.991Z,7.94
2023-02-20T07:52:50.997Z,7.98
2023-02-20T07:53:50.977Z,8.00
2023-02-20T07:54:50.959Z,8.04
2023-02-20T07:55:50.948Z,8.04
2023-02-20T07:56:51.199Z,8.05
2023-02-20T07:57:50.933Z,8.05
2023-02-20T07:58:51.064Z,8.08
2023-02-20T07:59:50.909Z,8.11
2023-02-20T08:00:50.899Z,8.13
2023-02-20T08:01:50.954Z,8.16
2023-02-20T08:02:50.919Z,8.19
2023-02-20T08:03:50.912Z,8.23
2023-02-20T08:04:50.881Z,8.23
2023-02-20T08:05:50.902Z,8.25
2023-02-20T08:06:50.878Z,8.30
2023-02-20T08:07:50.871Z,8.31
2023-02-20T08:08:50.805Z,8.37
2023-02-20T08:09:50.794Z,8.37
2023-02-20T08:10:57.108Z,8.38
2023-02-20T08:11:50.778Z,8.38
2023-02-20T08:12:50.763Z,8.41
2023-02-20T08:13:50.760Z,8.46
2023-02-20T08:14:50.769Z,8.49
2023-02-20T08:15:50.741Z,8.49
2023-02-20T08:16:50.707Z,8.52
2023-02-20T08:17:52.313Z,8.53
2023-02-20T08:18:50.750Z,8.52
2023-02-20T08:19:50.682Z,8.53
2023-02-20T08:20:50.671Z,8.55
2023-02-20T08:21:50.672Z,8.56
2023-02-20T08:22:50.702Z,8.56
2023-02-20T08:23:50.643Z,8.59
2023-02-20T08:24:50.629Z,8.60
2023-02-20T08:25:50.607Z,8.62
2023-02-20T08:26:50.603Z,8.63
2023-02-20T08:27:50.592Z,8.63
2023-02-20T08:28:50.584Z,8.67
2023-02-20T08:29:50.562Z,8.70
2023-02-20T08:30:50.618Z,8.68
2023-02-20T08:31:50.666Z,8.71
2023-02-20T08:32:50.722Z,8.72
2023-02-20T08:33:50.720Z,8.75
2023-02-20T08:34:50.517Z,8.77
2023-02-20T08:35:50.545Z,8.80
2023-02-20T08:36:50.487Z,8.80
2023-02-20T08:37:50.487Z,8.83
2023-02-20T08:38:50.472Z,8.83
2023-02-20T08:39:50.460Z,8.85
2023-02-20T08:40:50.442Z,8.86
2023-02-20T08:41:50.428Z,8.83
2023-02-20T08:42:50.435Z,8.83
2023-02-20T08:43:50.425Z,8.83
2023-02-20T08:44:50.401Z,8.85
2023-02-20T08:45:50.460Z,8.86
2023-02-20T08:46:50.415Z,8.88
2023-02-20T08:47:50.361Z,8.89
2023-02-20T08:48:50.442Z,8.90
2023-02-20T08:49:50.348Z,8.92
2023-02-20T08:50:50.350Z,8.95
2023-02-20T08:51:50.317Z,8.95
2023-02-20T08:52:50.313Z,8.99
2023-02-20T08:53:50.329Z,9.03
2023-02-20T08:54:50.311Z,9.03
2023-02-20T08:55:50.280Z,9.03
2023-02-20T08:56:50.259Z,9.01
2023-02-20T08:57:50.258Z,9.03
2023-02-20T08:58:50.242Z,9.06
2023-02-20T08:59:50.233Z,9.10
2023-02-20T09:00:50.251Z,9.08
2023-02-20T09:01:50.243Z,9.04
2023-02-20T09:02:50.277Z,9.07
2023-02-20T09:03:50.189Z,9.10
2023-02-20T09:04:50.183Z,9.14
2023-02-20T09:05:50.167Z,9.21
2023-02-20T09:06:50.160Z,9.25
2023-02-20T09:07:50.145Z,9.28
2023-02-20T09:08:50.130Z,9.31
2023-02-20T09:09:50.124Z,9.33
2023-02-20T09:10:50.114Z,9.39
2023-02-20T09:11:50.094Z,9.40
2023-02-20T09:12:50.088Z,9.44
2023-02-20T09:13:50.085Z,9.49
2023-02-20T09:14:50.073Z,9.50
2023-02-20T09:15:50.060Z,9.54
2023-02-20T09:16:50.075Z,9.61
2023-02-20T09:17:50.032Z,9.64
2023-02-20T09:18:50.047Z,9.68
2023-02-20T09:19:50.056Z,9.69
2023-02-20T09:20:49.995Z,9.76
2023-02-20T09:21:49.995Z,9.77
2023-02-20T09:22:49.971Z,9.83
2023-02-20T09:23:49.967Z,9.87
2023-02-20T09:24:49.948Z,9.90
2023-02-20T09:25:49.941Z,9.98
2023-02-20T09:26:49.929Z,10.01
2023-02-20T09:27:49.918Z,10.05
2023-02-20T09:28:49.914Z,10.08
2023-02-20T09:29:49.903Z,10.10
2023-02-20T09:30:49.883Z,10.14
2023-02-20T09:31:49.986Z,10.20
2023-02-20T09:32:49.861Z,10.24
2023-02-20T09:33:51.575Z,10.28
2023-02-20T09:34:49.862Z,10.35
2023-02-20T09:35:49.823Z,10.38
2023-02-20T09:36:49.822Z,10.41
2023-02-20T09:37:49.798Z,10.42
2023-02-20T09:38:49.789Z,10.48
2023-02-20T09:39:49.782Z,10.49
2023-02-20T09:40:49.763Z,10.38
2023-02-20T09:41:49.761Z,10.36
2023-02-20T09:42:49.757Z,10.39
2023-02-20T09:43:49.737Z,10.43
2023-02-20T09:44:49.722Z,10.41
2023-02-20T09:45:49.745Z,10.45
2023-02-20T09:46:49.723Z,10.54
2023-02-20T09:47:49.692Z,10.59
2023-02-20T09:48:49.673Z,10.64
2023-02-20T09:49:49.660Z,10.72
2023-02-20T09:50:49.689Z,10.78
2023-02-20T09:51:49.642Z,10.79
2023-02-20T09:52:49.631Z,10.82
2023-02-20T09:53:49.636Z,10.86
2023-02-20T09:54:49.610Z,10.89
2023-02-20T09:55:49.608Z,10.93
2023-02-20T09:56:49.583Z,10.99
2023-02-20T09:57:49.573Z,11.00
2023-02-20T09:58:49.575Z,11.00
2023-02-20T09:59:49.558Z,11.04
2023-02-20T10:00:49.542Z,11.12
2023-02-20T10:01:49.536Z,11.19
2023-02-20T10:02:49.564Z,11.23
2023-02-20T10:03:49.510Z,11.31
2023-02-20T10:05:00.386Z,11.36
2023-02-20T10:05:49.865Z,11.40
2023-02-20T10:06:49.494Z,11.36
2023-02-20T10:07:49.459Z,11.30
2023-02-20T10:08:49.463Z,11.34
2023-02-20T10:09:49.444Z,11.41
2023-02-20T10:10:49.431Z,11.46
2023-02-20T10:11:49.418Z,11.52
2023-02-20T10:12:49.423Z,11.55
2023-02-20T10:13:49.402Z,11.56
2023-02-20T10:14:49.397Z,11.59
2023-02-20T10:15:49.372Z,11.59
2023-02-20T10:16:49.364Z,11.58
2023-02-20T10:17:49.355Z,11.58
2023-02-20T10:18:49.343Z,11.56
2023-02-20T10:19:49.324Z,11.55
2023-02-20T10:20:49.321Z,11.52
2023-02-20T10:21:49.312Z,11.52
2023-02-20T10:22:49.322Z,11.55
2023-02-20T10:23:59.909Z,11.58
2023-02-20T10:24:49.277Z,11.62
2023-02-20T10:25:49.268Z,11.61
2023-02-20T10:26:49.278Z,11.61
2023-02-20T10:27:49.255Z,11.61
2023-02-20T10:28:49.321Z,11.62
2023-02-20T10:29:49.230Z,11.64
2023-02-20T10:30:49.227Z,11.66
2023-02-20T10:31:49.378Z,11.66
2023-02-20T10:32:49.190Z,11.61
2023-02-20T10:33:49.192Z,11.59
2023-02-20T10:34:49.162Z,11.59
2023-02-20T10:35:49.157Z,11.59
2023-02-20T10:36:49.144Z,11.59
2023-02-20T10:37:49.135Z,11.59
2023-02-20T10:38:49.157Z,11.61
2023-02-20T10:39:49.112Z,11.61
2023-02-20T10:40:49.105Z,11.59
2023-02-20T10:41:49.096Z,11.59
2023-02-20T10:42:49.078Z,11.61
2023-02-20T10:43:49.090Z,11.62
2023-02-20T10:44:52.244Z,11.66
2023-02-20T10:45:49.078Z,11.67
2023-02-20T10:46:49.892Z,11.70
2023-02-20T10:47:49.024Z,11.71
2023-02-20T10:48:49.002Z,11.73
2023-02-20T10:49:48.998Z,11.71
2023-02-20T10:50:48.980Z,11.71
2023-02-20T10:51:48.989Z,11.71
2023-02-20T10:52:48.963Z,11.73
2023-02-20T10:53:48.954Z,11.74
2023-02-20T10:54:48.964Z,11.76
2023-02-20T10:55:48.936Z,11.76
2023-02-20T10:56:48.924Z,11.73
2023-02-20T10:57:48.900Z,11.70
2023-02-20T10:58:48.891Z,11.67
2023-02-20T10:59:50.346Z,11.66
2023-02-20T11:00:48.881Z,11.66
2023-02-20T11:01:48.914Z,11.67
2023-02-20T11:02:48.849Z,11.71
2023-02-20T11:03:48.847Z,11.76
2023-02-20T11:04:48.838Z,11.80
2023-02-20T11:05:48.815Z,11.80
2023-02-20T11:06:48.799Z,11.80
2023-02-20T11:07:48.799Z,11.82
2023-02-20T11:08:48.779Z,11.82
2023-02-20T11:09:48.774Z,11.82
2023-02-20T11:10:48.782Z,11.79
2023-02-20T11:11:48.737Z,11.76
2023-02-20T11:12:48.734Z,11.74
2023-02-20T11:13:48.716Z,11.73
2023-02-20T11:14:48.709Z,11.71
2023-02-20T11:15:48.776Z,11.67
2023-02-20T11:16:48.688Z,11.67
2023-02-20T11:17:48.672Z,11.67
2023-02-20T11:18:48.665Z,11.69
2023-02-20T11:19:48.721Z,11.69
2023-02-20T11:20:48.643Z,11.69
2023-02-20T11:21:48.637Z,11.73
2023-02-20T11:22:48.625Z,11.74
2023-02-20T11:23:48.612Z,11.77
2023-02-20T11:24:48.603Z,11.80
2023-02-20T11:25:48.582Z,11.82
2023-02-20T11:26:48.623Z,11.84
2023-02-20T11:27:48.577Z,11.84
2023-02-20T11:28:48.553Z,11.80
2023-02-20T11:29:48.545Z,11.84
2023-02-20T11:30:48.559Z,11.80
2023-02-20T11:31:48.710Z,11.82
2023-02-20T11:32:48.508Z,11.80
2023-02-20T11:33:48.511Z,11.84
2023-02-20T11:34:48.483Z,11.82
2023-02-20T11:35:48.483Z,11.82
2023-02-20T11:36:48.484Z,11.82
2023-02-20T11:37:54.735Z,11.82
2023-02-20T11:38:48.449Z,11.82
2023-02-20T11:39:48.435Z,11.80
2023-02-20T11:40:48.418Z,11.82
2023-02-20T11:41:48.423Z,11.79
2023-02-20T11:42:48.524Z,11.79
2023-02-20T11:44:00.883Z,11.77
2023-02-20T11:44:48.381Z,11.76
2023-02-20T11:45:48.375Z,11.76
2023-02-20T11:46:48.387Z,11.74
2023-02-20T11:47:48.345Z,11.71
2023-02-20T11:48:48.332Z,11.73
2023-02-20T11:49:48.333Z,11.70
2023-02-20T11:50:48.336Z,11.71
2023-02-20T11:51:48.333Z,11.70
2023-02-20T11:52:48.301Z,11.73
2023-02-20T11:53:48.279Z,11.74
2023-02-20T11:54:48.272Z,11.77
2023-02-20T11:55:58.701Z,11.79
2023-02-20T11:56:48.243Z,11.80
2023-02-20T11:57:48.254Z,11.79
2023-02-20T11:58:48.241Z,11.77
2023-02-20T11:59:48.209Z,11.73
2023-02-20T12:00:48.187Z,11.76
2023-02-20T12:02:00.348Z,11.74
2023-02-20T12:02:48.185Z,11.73
2023-02-20T12:03:50.929Z,11.71
2023-02-20T12:04:48.148Z,11.71
2023-02-20T12:05:48.155Z,11.71
2023-02-20T12:06:48.124Z,11.71
2023-02-20T12:07:48.114Z,11.71
2023-02-20T12:08:48.101Z,11.71
2023-02-20T12:09:48.084Z,11.70
2023-02-20T12:10:48.081Z,11.66
2023-02-20T12:11:48.075Z,11.61
2023-02-20T12:12:48.151Z,11.62
2023-02-20T12:13:48.054Z,11.61
2023-02-20T12:14:48.055Z,11.61
2023-02-20T12:15:48.123Z,11.59
2023-02-20T12:16:48.010Z,11.62
2023-02-20T12:17:47.995Z,11.62
2023-02-20T12:18:47.983Z,11.66
2023-02-20T12:19:47.986Z,11.69
2023-02-20T12:20:47.962Z,11.73
2023-02-20T12:21:47.953Z,11.77
2023-02-20T12:22:47.936Z,11.82
2023-02-20T12:23:47.929Z,11.85
2023-02-20T12:24:47.923Z,11.88
2023-02-20T12:25:47.909Z,11.87
2023-02-20T12:26:47.891Z,11.89
2023-02-20T12:27:47.888Z,11.89
2023-02-20T12:28:47.879Z,11.92
2023-02-20T12:29:47.861Z,11.92
2023-02-20T12:30:47.877Z,11.89
2023-02-20T12:31:48.022Z,11.85
2023-02-20T12:32:47.831Z,11.85
2023-02-20T12:33:47.830Z,11.82
2023-02-20T12:34:47.809Z,11.79
2023-02-20T12:35:47.798Z,11.76
2023-02-20T12:36:47.788Z,11.70
2023-02-20T12:37:47.784Z,11.69
2023-02-20T12:38:47.789Z,11.70
2023-02-20T12:39:47.747Z,11.69
2023-02-20T12:40:47.743Z,11.66
2023-02-20T12:41:47.736Z,11.64
2023-02-20T12:42:47.715Z,11.62
2023-02-20T12:43:47.713Z,11.62
2023-02-20T12:44:47.692Z,11.66
2023-02-20T12:45:47.679Z,11.67
2023-02-20T12:46:47.717Z,11.70
2023-02-20T12:47:48.833Z,11.71
2023-02-20T12:48:47.649Z,11.73
2023-02-20T12:49:47.642Z,11.73
2023-02-20T12:50:47.634Z,11.76
2023-02-20T12:51:47.621Z,11.76
2023-02-20T12:52:47.609Z,11.80
2023-02-20T12:53:47.592Z,11.76
2023-02-20T12:54:47.580Z,11.74
2023-02-20T12:55:47.569Z,11.71
2023-02-20T12:56:47.564Z,11.74
2023-02-20T12:57:47.554Z,11.74
2023-02-20T12:58:47.534Z,11.74
2023-02-20T12:59:47.526Z,11.74
2023-02-20T13:00:47.573Z,11.73
2023-02-20T13:01:47.510Z,11.73
2023-02-20T13:02:47.534Z,11.71
2023-02-20T13:03:47.504Z,11.71
2023-02-20T13:04:47.467Z,11.71
2023-02-20T13:05:47.462Z,11.69
2023-02-20T13:06:47.451Z,11.67
2023-02-20T13:07:47.499Z,11.62
2023-02-20T13:08:47.434Z,11.55
2023-02-20T13:09:47.424Z,11.52
2023-02-20T13:10:47.399Z,11.51